sensor_id;sensor_type;location;lat;lon;timestamp;P1;durP1;ratioP1;P2;durP2;ratioP2
21675;SDS011;10999;51.332;9.458;2022-09-29T00:00:21;10.35;;;5.13;;
21675;SDS011;10999;51.332;9.458;2022-09-29T00:02:48;12.23;;;5.40;;
21675;SDS011;10999;51.332;9.458;2022-09-29T00:05:15;9.90;;;4.28;;
21675;SDS011;10999;51.332;9.458;2022-09-29T00:07:42;9.15;;;4.25;;
21675;SDS011;10999;51.332;9.458;2022-09-29T00:10:08;11.35;;;5.13;;
21675;SDS011;10999;51.332;9.458;2022-09-29T00:12:35;11.82;;;5.30;;
21675;SDS011;10999;51.332;9.458;2022-09-29T00:15:02;10.00;;;4.63;;
21675;SDS011;10999;51.332;9.458;2022-09-29T00:17:29;13.38;;;6.45;;
21675;SDS011;10999;51.332;9.458;2022-09-29T00:19:56;11.38;;;5.22;;
21675;SDS011;10999;51.332;9.458;2022-09-29T00:22:23;12.32;;;5.60;;
21675;SDS011;10999;51.332;9.458;2022-09-29T00:24:50;10.80;;;5.35;;
21675;SDS011;10999;51.332;9.458;2022-09-29T00:27:17;10.25;;;4.72;;
21675;SDS011;10999;51.332;9.458;2022-09-29T00:29:44;12.65;;;5.25;;
21675;SDS011;10999;51.332;9.458;2022-09-29T00:32:11;12.25;;;5.53;;
21675;SDS011;10999;51.332;9.458;2022-09-29T00:34:38;12.52;;;5.47;;
21675;SDS011;10999;51.332;9.458;2022-09-29T00:37:05;12.50;;;6.05;;
21675;SDS011;10999;51.332;9.458;2022-09-29T00:39:32;11.73;;;4.97;;
21675;SDS011;10999;51.332;9.458;2022-09-29T00:41:58;11.77;;;5.38;;
21675;SDS011;10999;51.332;9.458;2022-09-29T00:47:20;13.23;;;6.30;;
21675;SDS011;10999;51.332;9.458;2022-09-29T00:49:48;10.95;;;5.20;;
21675;SDS011;10999;51.332;9.458;2022-09-29T00:52:25;14.52;;;6.10;;
21675;SDS011;10999;51.332;9.458;2022-09-29T00:55:00;14.65;;;6.65;;
21675;SDS011;10999;51.332;9.458;2022-09-29T00:57:36;12.70;;;5.90;;
21675;SDS011;10999;51.332;9.458;2022-09-29T01:00:13;12.68;;;5.78;;
21675;SDS011;10999;51.332;9.458;2022-09-29T01:02:45;10.95;;;4.65;;
21675;SDS011;10999;51.332;9.458;2022-09-29T01:05:17;11.25;;;5.20;;
21675;SDS011;10999;51.332;9.458;2022-09-29T01:07:46;14.65;;;5.70;;
21675;SDS011;10999;51.332;9.458;2022-09-29T01:10:14;13.48;;;4.68;;
21675;SDS011;10999;51.332;9.458;2022-09-29T01:12:42;13.13;;;5.55;;
21675;SDS011;10999;51.332;9.458;2022-09-29T01:15:12;11.93;;;4.88;;
21675;SDS011;10999;51.332;9.458;2022-09-29T01:17:41;11.32;;;5.32;;
21675;SDS011;10999;51.332;9.458;2022-09-29T01:20:17;12.98;;;5.43;;
21675;SDS011;10999;51.332;9.458;2022-09-29T01:33:57;11.60;;;5.05;;
21675;SDS011;10999;51.332;9.458;2022-09-29T01:36:40;12.13;;;4.80;;
21675;SDS011;10999;51.332;9.458;2022-09-29T01:39:18;9.95;;;4.47;;
21675;SDS011;10999;51.332;9.458;2022-09-29T01:42:14;12.07;;;5.10;;
21675;SDS011;10999;51.332;9.458;2022-09-29T01:47:36;11.32;;;5.07;;
21675;SDS011;10999;51.332;9.458;2022-09-29T01:50:10;12.52;;;5.00;;
21675;SDS011;10999;51.332;9.458;2022-09-29T01:52:43;10.55;;;4.47;;
21675;SDS011;10999;51.332;9.458;2022-09-29T01:55:15;11.68;;;4.72;;
21675;SDS011;10999;51.332;9.458;2022-09-29T02:00:15;11.18;;;4.72;;
21675;SDS011;10999;51.332;9.458;2022-09-29T02:02:50;15.88;;;6.53;;
21675;SDS011;10999;51.332;9.458;2022-09-29T02:05:33;11.90;;;4.88;;
21675;SDS011;10999;51.332;9.458;2022-09-29T02:08:10;12.90;;;5.15;;
21675;SDS011;10999;51.332;9.458;2022-09-29T02:10:50;11.65;;;5.03;;
21675;SDS011;10999;51.332;9.458;2022-09-29T02:13:20;15.80;;;6.18;;
21675;SDS011;10999;51.332;9.458;2022-09-29T02:15:50;11.02;;;4.95;;
21675;SDS011;10999;51.332;9.458;2022-09-29T02:18:21;11.75;;;5.53;;
21675;SDS011;10999;51.332;9.458;2022-09-29T02:20:51;13.48;;;6.15;;
21675;SDS011;10999;51.332;9.458;2022-09-29T02:23:18;14.02;;;5.43;;
21675;SDS011;10999;51.332;9.458;2022-09-29T02:25:45;16.05;;;7.00;;
21675;SDS011;10999;51.332;9.458;2022-09-29T02:28:13;15.57;;;6.82;;
21675;SDS011;10999;51.332;9.458;2022-09-29T02:30:41;12.10;;;5.38;;
21675;SDS011;10999;51.332;9.458;2022-09-29T02:33:21;11.80;;;5.05;;
21675;SDS011;10999;51.332;9.458;2022-09-29T02:38:38;16.45;;;6.55;;
21675;SDS011;10999;51.332;9.458;2022-09-29T02:46:44;16.60;;;6.40;;
21675;SDS011;10999;51.332;9.458;2022-09-29T02:51:58;15.30;;;6.22;;
21675;SDS011;10999;51.332;9.458;2022-09-29T03:00:09;15.65;;;6.43;;
21675;SDS011;10999;51.332;9.458;2022-09-29T03:02:40;12.25;;;5.63;;
21675;SDS011;10999;51.332;9.458;2022-09-29T03:05:08;15.35;;;7.32;;
21675;SDS011;10999;51.332;9.458;2022-09-29T03:07:38;15.57;;;7.15;;
21675;SDS011;10999;51.332;9.458;2022-09-29T03:10:06;14.90;;;6.57;;
21675;SDS011;10999;51.332;9.458;2022-09-29T03:12:34;15.13;;;5.68;;
21675;SDS011;10999;51.332;9.458;2022-09-29T03:15:01;13.50;;;5.80;;
21675;SDS011;10999;51.332;9.458;2022-09-29T03:17:29;15.50;;;6.25;;
21675;SDS011;10999;51.332;9.458;2022-09-29T03:19:56;14.65;;;6.05;;
21675;SDS011;10999;51.332;9.458;2022-09-29T03:22:23;12.65;;;5.15;;
21675;SDS011;10999;51.332;9.458;2022-09-29T03:24:50;11.32;;;5.45;;
21675;SDS011;10999;51.332;9.458;2022-09-29T03:27:17;13.23;;;5.80;;
21675;SDS011;10999;51.332;9.458;2022-09-29T03:29:44;15.82;;;6.75;;
21675;SDS011;10999;51.332;9.458;2022-09-29T03:32:10;14.38;;;5.00;;
21675;SDS011;10999;51.332;9.458;2022-09-29T03:34:37;12.45;;;5.40;;
21675;SDS011;10999;51.332;9.458;2022-09-29T03:37:04;12.20;;;5.07;;
21675;SDS011;10999;51.332;9.458;2022-09-29T03:39:30;11.95;;;5.40;;
21675;SDS011;10999;51.332;9.458;2022-09-29T03:41:57;11.07;;;4.95;;
21675;SDS011;10999;51.332;9.458;2022-09-29T03:44:24;11.90;;;5.03;;
21675;SDS011;10999;51.332;9.458;2022-09-29T03:46:51;12.05;;;6.00;;
21675;SDS011;10999;51.332;9.458;2022-09-29T03:49:17;13.00;;;5.72;;
21675;SDS011;10999;51.332;9.458;2022-09-29T03:51:44;12.98;;;5.47;;
21675;SDS011;10999;51.332;9.458;2022-09-29T03:54:11;12.80;;;5.68;;
21675;SDS011;10999;51.332;9.458;2022-09-29T03:56:38;12.93;;;5.18;;
21675;SDS011;10999;51.332;9.458;2022-09-29T03:59:05;13.15;;;6.13;;
21675;SDS011;10999;51.332;9.458;2022-09-29T04:01:34;13.02;;;5.88;;
21675;SDS011;10999;51.332;9.458;2022-09-29T04:04:03;11.27;;;5.18;;
21675;SDS011;10999;51.332;9.458;2022-09-29T04:06:33;15.35;;;6.28;;
21675;SDS011;10999;51.332;9.458;2022-09-29T04:09:01;18.33;;;7.68;;
21675;SDS011;10999;51.332;9.458;2022-09-29T04:11:28;17.63;;;6.57;;
21675;SDS011;10999;51.332;9.458;2022-09-29T04:13:55;17.33;;;7.35;;
21675;SDS011;10999;51.332;9.458;2022-09-29T04:16:23;18.48;;;7.72;;
21675;SDS011;10999;51.332;9.458;2022-09-29T04:18:50;15.25;;;7.05;;
21675;SDS011;10999;51.332;9.458;2022-09-29T04:21:16;15.52;;;6.95;;
21675;SDS011;10999;51.332;9.458;2022-09-29T04:23:43;13.63;;;5.93;;
21675;SDS011;10999;51.332;9.458;2022-09-29T04:26:11;17.23;;;7.50;;
21675;SDS011;10999;51.332;9.458;2022-09-29T04:28:38;17.90;;;7.78;;
21675;SDS011;10999;51.332;9.458;2022-09-29T04:31:05;16.10;;;6.80;;
21675;SDS011;10999;51.332;9.458;2022-09-29T04:33:32;18.15;;;7.18;;
21675;SDS011;10999;51.332;9.458;2022-09-29T04:36:00;19.15;;;7.82;;
21675;SDS011;10999;51.332;9.458;2022-09-29T04:38:27;20.30;;;8.73;;
21675;SDS011;10999;51.332;9.458;2022-09-29T04:40:53;17.50;;;6.80;;
21675;SDS011;10999;51.332;9.458;2022-09-29T04:43:20;18.80;;;7.93;;
21675;SDS011;10999;51.332;9.458;2022-09-29T04:45:47;21.00;;;8.60;;
21675;SDS011;10999;51.332;9.458;2022-09-29T04:48:14;18.88;;;7.57;;
21675;SDS011;10999;51.332;9.458;2022-09-29T04:50:41;20.67;;;8.10;;
21675;SDS011;10999;51.332;9.458;2022-09-29T04:53:08;21.02;;;8.98;;
21675;SDS011;10999;51.332;9.458;2022-09-29T04:55:37;21.50;;;8.30;;
21675;SDS011;10999;51.332;9.458;2022-09-29T04:58:03;17.90;;;7.78;;
21675;SDS011;10999;51.332;9.458;2022-09-29T05:00:30;21.95;;;8.57;;
21675;SDS011;10999;51.332;9.458;2022-09-29T05:02:58;24.15;;;7.88;;
21675;SDS011;10999;51.332;9.458;2022-09-29T05:05:25;59.50;;;9.80;;
21675;SDS011;10999;51.332;9.458;2022-09-29T05:07:52;21.60;;;7.72;;
21675;SDS011;10999;51.332;9.458;2022-09-29T05:10:19;16.20;;;6.70;;
21675;SDS011;10999;51.332;9.458;2022-09-29T05:12:46;18.02;;;7.10;;
21675;SDS011;10999;51.332;9.458;2022-09-29T05:15:16;16.58;;;6.93;;
21675;SDS011;10999;51.332;9.458;2022-09-29T05:17:50;14.68;;;6.85;;
21675;SDS011;10999;51.332;9.458;2022-09-29T05:20:16;35.05;;;9.30;;
21675;SDS011;10999;51.332;9.458;2022-09-29T05:22:43;15.32;;;6.15;;
21675;SDS011;10999;51.332;9.458;2022-09-29T05:25:10;12.93;;;6.40;;
21675;SDS011;10999;51.332;9.458;2022-09-29T05:27:36;13.68;;;5.88;;
21675;SDS011;10999;51.332;9.458;2022-09-29T05:30:04;24.30;;;7.35;;
21675;SDS011;10999;51.332;9.458;2022-09-29T05:32:31;26.58;;;7.97;;
21675;SDS011;10999;51.332;9.458;2022-09-29T05:34:57;49.40;;;9.40;;
21675;SDS011;10999;51.332;9.458;2022-09-29T05:37:24;16.85;;;8.07;;
21675;SDS011;10999;51.332;9.458;2022-09-29T05:39:51;25.92;;;8.13;;
21675;SDS011;10999;51.332;9.458;2022-09-29T05:42:18;16.52;;;7.15;;
21675;SDS011;10999;51.332;9.458;2022-09-29T05:44:45;32.38;;;8.60;;
21675;SDS011;10999;51.332;9.458;2022-09-29T05:47:12;17.27;;;7.78;;
21675;SDS011;10999;51.332;9.458;2022-09-29T05:49:38;26.50;;;8.88;;
21675;SDS011;10999;51.332;9.458;2022-09-29T05:52:05;28.05;;;9.45;;
21675;SDS011;10999;51.332;9.458;2022-09-29T05:54:32;34.70;;;8.63;;
21675;SDS011;10999;51.332;9.458;2022-09-29T05:56:59;24.00;;;8.07;;
21675;SDS011;10999;51.332;9.458;2022-09-29T05:59:25;18.67;;;7.75;;
21675;SDS011;10999;51.332;9.458;2022-09-29T06:01:52;31.92;;;7.80;;
21675;SDS011;10999;51.332;9.458;2022-09-29T06:04:19;20.25;;;7.75;;
21675;SDS011;10999;51.332;9.458;2022-09-29T06:06:46;18.95;;;7.28;;
21675;SDS011;10999;51.332;9.458;2022-09-29T06:09:13;44.08;;;10.40;;
21675;SDS011;10999;51.332;9.458;2022-09-29T06:11:40;37.47;;;9.30;;
21675;SDS011;10999;51.332;9.458;2022-09-29T06:14:07;37.03;;;9.68;;
21675;SDS011;10999;51.332;9.458;2022-09-29T06:16:33;22.83;;;8.30;;
21675;SDS011;10999;51.332;9.458;2022-09-29T06:19:01;20.75;;;7.70;;
21675;SDS011;10999;51.332;9.458;2022-09-29T06:21:29;22.33;;;8.25;;
21675;SDS011;10999;51.332;9.458;2022-09-29T06:23:57;19.23;;;7.82;;
21675;SDS011;10999;51.332;9.458;2022-09-29T06:26:25;52.63;;;10.02;;
21675;SDS011;10999;51.332;9.458;2022-09-29T06:28:53;41.38;;;8.98;;
21675;SDS011;10999;51.332;9.458;2022-09-29T06:31:24;27.83;;;8.50;;
21675;SDS011;10999;51.332;9.458;2022-09-29T06:33:55;37.55;;;8.75;;
21675;SDS011;10999;51.332;9.458;2022-09-29T06:36:28;17.35;;;7.80;;
21675;SDS011;10999;51.332;9.458;2022-09-29T06:39:22;17.48;;;8.32;;
21675;SDS011;10999;51.332;9.458;2022-09-29T06:41:49;17.45;;;7.20;;
21675;SDS011;10999;51.332;9.458;2022-09-29T06:44:21;29.15;;;8.88;;
21675;SDS011;10999;51.332;9.458;2022-09-29T06:46:49;17.67;;;7.30;;
21675;SDS011;10999;51.332;9.458;2022-09-29T06:49:17;16.98;;;8.23;;
21675;SDS011;10999;51.332;9.458;2022-09-29T06:51:45;15.27;;;6.55;;
21675;SDS011;10999;51.332;9.458;2022-09-29T06:54:13;18.52;;;7.63;;
21675;SDS011;10999;51.332;9.458;2022-09-29T06:56:41;18.27;;;7.68;;
21675;SDS011;10999;51.332;9.458;2022-09-29T06:59:08;17.83;;;7.10;;
21675;SDS011;10999;51.332;9.458;2022-09-29T07:01:35;17.90;;;7.70;;
21675;SDS011;10999;51.332;9.458;2022-09-29T07:04:01;17.10;;;7.25;;
21675;SDS011;10999;51.332;9.458;2022-09-29T07:06:29;19.70;;;7.78;;
21675;SDS011;10999;51.332;9.458;2022-09-29T07:08:56;16.55;;;7.60;;
21675;SDS011;10999;51.332;9.458;2022-09-29T07:11:24;23.00;;;7.97;;
21675;SDS011;10999;51.332;9.458;2022-09-29T07:13:51;16.65;;;7.32;;
21675;SDS011;10999;51.332;9.458;2022-09-29T07:16:20;22.95;;;7.95;;
21675;SDS011;10999;51.332;9.458;2022-09-29T07:18:49;19.15;;;8.45;;
21675;SDS011;10999;51.332;9.458;2022-09-29T07:21:16;19.63;;;8.30;;
21675;SDS011;10999;51.332;9.458;2022-09-29T07:23:44;21.15;;;9.52;;
21675;SDS011;10999;51.332;9.458;2022-09-29T07:26:12;24.50;;;9.45;;
21675;SDS011;10999;51.332;9.458;2022-09-29T07:28:41;22.60;;;9.82;;
21675;SDS011;10999;51.332;9.458;2022-09-29T07:31:10;23.02;;;9.23;;
21675;SDS011;10999;51.332;9.458;2022-09-29T07:33:41;18.67;;;9.48;;
21675;SDS011;10999;51.332;9.458;2022-09-29T07:36:12;21.23;;;9.43;;
21675;SDS011;10999;51.332;9.458;2022-09-29T07:38:40;20.13;;;8.20;;
21675;SDS011;10999;51.332;9.458;2022-09-29T07:41:08;25.02;;;8.75;;
21675;SDS011;10999;51.332;9.458;2022-09-29T07:43:36;20.52;;;9.25;;
21675;SDS011;10999;51.332;9.458;2022-09-29T07:46:04;22.05;;;9.25;;
21675;SDS011;10999;51.332;9.458;2022-09-29T07:48:32;22.35;;;9.45;;
21675;SDS011;10999;51.332;9.458;2022-09-29T07:51:00;19.45;;;8.60;;
21675;SDS011;10999;51.332;9.458;2022-09-29T07:53:28;20.65;;;8.63;;
21675;SDS011;10999;51.332;9.458;2022-09-29T07:56:07;22.23;;;8.95;;
21675;SDS011;10999;51.332;9.458;2022-09-29T07:58:36;20.88;;;9.60;;
21675;SDS011;10999;51.332;9.458;2022-09-29T08:01:04;22.27;;;9.50;;
21675;SDS011;10999;51.332;9.458;2022-09-29T08:03:36;20.05;;;8.80;;
21675;SDS011;10999;51.332;9.458;2022-09-29T08:06:04;20.92;;;9.90;;
21675;SDS011;10999;51.332;9.458;2022-09-29T08:08:33;21.27;;;8.82;;
21675;SDS011;10999;51.332;9.458;2022-09-29T08:11:06;21.05;;;8.85;;
21675;SDS011;10999;51.332;9.458;2022-09-29T08:13:39;23.20;;;9.45;;
21675;SDS011;10999;51.332;9.458;2022-09-29T08:16:07;22.63;;;10.25;;
21675;SDS011;10999;51.332;9.458;2022-09-29T08:18:36;20.83;;;9.15;;
21675;SDS011;10999;51.332;9.458;2022-09-29T08:21:04;21.25;;;9.32;;
21675;SDS011;10999;51.332;9.458;2022-09-29T08:23:35;28.10;;;10.82;;
21675;SDS011;10999;51.332;9.458;2022-09-29T08:26:15;25.48;;;9.38;;
21675;SDS011;10999;51.332;9.458;2022-09-29T08:28:51;24.23;;;10.82;;
21675;SDS011;10999;51.332;9.458;2022-09-29T08:31:32;27.67;;;11.35;;
21675;SDS011;10999;51.332;9.458;2022-09-29T08:33:59;21.23;;;9.23;;
21675;SDS011;10999;51.332;9.458;2022-09-29T08:36:26;26.10;;;10.13;;
21675;SDS011;10999;51.332;9.458;2022-09-29T08:38:53;20.08;;;8.85;;
21675;SDS011;10999;51.332;9.458;2022-09-29T08:41:38;22.25;;;9.43;;
21675;SDS011;10999;51.332;9.458;2022-09-29T08:49:38;25.70;;;9.25;;
21675;SDS011;10999;51.332;9.458;2022-09-29T08:52:13;22.65;;;9.00;;
21675;SDS011;10999;51.332;9.458;2022-09-29T08:54:44;23.85;;;9.85;;
21675;SDS011;10999;51.332;9.458;2022-09-29T08:57:15;23.45;;;9.82;;
21675;SDS011;10999;51.332;9.458;2022-09-29T08:59:45;24.65;;;11.27;;
21675;SDS011;10999;51.332;9.458;2022-09-29T09:05:36;22.20;;;10.77;;
21675;SDS011;10999;51.332;9.458;2022-09-29T09:11:44;22.02;;;9.85;;
21675;SDS011;10999;51.332;9.458;2022-09-29T09:21:52;22.70;;;9.55;;
21675;SDS011;10999;51.332;9.458;2022-09-29T09:24:40;21.42;;;9.68;;
21675;SDS011;10999;51.332;9.458;2022-09-29T09:27:19;19.83;;;9.93;;
21675;SDS011;10999;51.332;9.458;2022-09-29T09:29:56;19.85;;;9.43;;
21675;SDS011;10999;51.332;9.458;2022-09-29T09:32:29;21.70;;;9.48;;
21675;SDS011;10999;51.332;9.458;2022-09-29T09:35:16;20.60;;;10.30;;
21675;SDS011;10999;51.332;9.458;2022-09-29T09:37:49;21.50;;;9.25;;
21675;SDS011;10999;51.332;9.458;2022-09-29T09:40:20;18.52;;;9.23;;
21675;SDS011;10999;51.332;9.458;2022-09-29T09:42:50;19.42;;;10.25;;
21675;SDS011;10999;51.332;9.458;2022-09-29T09:48:01;17.75;;;9.20;;
21675;SDS011;10999;51.332;9.458;2022-09-29T09:50:56;18.88;;;9.85;;
21675;SDS011;10999;51.332;9.458;2022-09-29T09:53:29;19.58;;;9.88;;
21675;SDS011;10999;51.332;9.458;2022-09-29T09:56:06;20.73;;;9.10;;
21675;SDS011;10999;51.332;9.458;2022-09-29T09:59:17;17.58;;;9.15;;
21675;SDS011;10999;51.332;9.458;2022-09-29T10:02:02;19.73;;;9.50;;
21675;SDS011;10999;51.332;9.458;2022-09-29T10:04:29;18.85;;;9.38;;
21675;SDS011;10999;51.332;9.458;2022-09-29T10:06:58;16.85;;;8.63;;
21675;SDS011;10999;51.332;9.458;2022-09-29T10:09:25;19.98;;;9.63;;
21675;SDS011;10999;51.332;9.458;2022-09-29T10:11:53;17.70;;;8.55;;
21675;SDS011;10999;51.332;9.458;2022-09-29T10:16:49;15.48;;;7.68;;
21675;SDS011;10999;51.332;9.458;2022-09-29T10:22:22;17.70;;;8.63;;
21675;SDS011;10999;51.332;9.458;2022-09-29T10:24:53;14.70;;;8.35;;
21675;SDS011;10999;51.332;9.458;2022-09-29T10:27:46;14.20;;;7.45;;
21675;SDS011;10999;51.332;9.458;2022-09-29T10:30:18;14.60;;;7.70;;
21675;SDS011;10999;51.332;9.458;2022-09-29T10:32:54;14.25;;;7.63;;
21675;SDS011;10999;51.332;9.458;2022-09-29T10:35:25;15.15;;;7.57;;
21675;SDS011;10999;51.332;9.458;2022-09-29T10:37:59;12.70;;;6.32;;
21675;SDS011;10999;51.332;9.458;2022-09-29T10:40:27;14.05;;;7.38;;
21675;SDS011;10999;51.332;9.458;2022-09-29T10:42:55;14.18;;;7.70;;
21675;SDS011;10999;51.332;9.458;2022-09-29T10:45:23;14.18;;;7.60;;
21675;SDS011;10999;51.332;9.458;2022-09-29T10:50:30;14.65;;;7.50;;
21675;SDS011;10999;51.332;9.458;2022-09-29T10:53:03;12.95;;;7.07;;
21675;SDS011;10999;51.332;9.458;2022-09-29T10:55:46;12.05;;;6.03;;
21675;SDS011;10999;51.332;9.458;2022-09-29T10:58:19;12.27;;;6.80;;
21675;SDS011;10999;51.332;9.458;2022-09-29T11:01:14;11.48;;;5.82;;
21675;SDS011;10999;51.332;9.458;2022-09-29T11:03:46;11.18;;;5.72;;
21675;SDS011;10999;51.332;9.458;2022-09-29T11:06:13;11.30;;;5.95;;
21675;SDS011;10999;51.332;9.458;2022-09-29T11:08:54;11.65;;;5.95;;
21675;SDS011;10999;51.332;9.458;2022-09-29T11:11:26;10.38;;;4.72;;
21675;SDS011;10999;51.332;9.458;2022-09-29T11:13:53;10.35;;;4.88;;
21675;SDS011;10999;51.332;9.458;2022-09-29T11:16:34;10.73;;;5.10;;
21675;SDS011;10999;51.332;9.458;2022-09-29T11:19:10;9.80;;;4.60;;
21675;SDS011;10999;51.332;9.458;2022-09-29T11:43:45;9.40;;;4.72;;
21675;SDS011;10999;51.332;9.458;2022-09-29T11:55:10;9.18;;;4.13;;
21675;SDS011;10999;51.332;9.458;2022-09-29T11:58:07;8.90;;;4.07;;
21675;SDS011;10999;51.332;9.458;2022-09-29T12:00:56;10.02;;;4.50;;
21675;SDS011;10999;51.332;9.458;2022-09-29T12:03:27;12.45;;;4.60;;
21675;SDS011;10999;51.332;9.458;2022-09-29T12:06:13;9.32;;;4.65;;
21675;SDS011;10999;51.332;9.458;2022-09-29T12:11:45;7.32;;;3.53;;
21675;SDS011;10999;51.332;9.458;2022-09-29T12:17:15;7.93;;;3.85;;
21675;SDS011;10999;51.332;9.458;2022-09-29T12:19:47;8.30;;;4.22;;
21675;SDS011;10999;51.332;9.458;2022-09-29T12:22:24;9.63;;;4.07;;
21675;SDS011;10999;51.332;9.458;2022-09-29T12:24:52;9.30;;;4.22;;
21675;SDS011;10999;51.332;9.458;2022-09-29T12:27:22;7.43;;;3.10;;
21675;SDS011;10999;51.332;9.458;2022-09-29T12:29:54;8.60;;;3.70;;
21675;SDS011;10999;51.332;9.458;2022-09-29T12:32:27;7.95;;;4.22;;
21675;SDS011;10999;51.332;9.458;2022-09-29T12:35:05;7.20;;;3.67;;
21675;SDS011;10999;51.332;9.458;2022-09-29T12:37:50;9.20;;;4.20;;
21675;SDS011;10999;51.332;9.458;2022-09-29T12:40:48;8.93;;;4.25;;
21675;SDS011;10999;51.332;9.458;2022-09-29T12:46:22;10.23;;;4.53;;
21675;SDS011;10999;51.332;9.458;2022-09-29T12:51:48;8.65;;;3.65;;
21675;SDS011;10999;51.332;9.458;2022-09-29T12:54:24;7.93;;;3.95;;
21675;SDS011;10999;51.332;9.458;2022-09-29T12:57:08;10.80;;;4.03;;
21675;SDS011;10999;51.332;9.458;2022-09-29T12:59:46;7.53;;;3.40;;
21675;SDS011;10999;51.332;9.458;2022-09-29T13:07:50;7.82;;;3.05;;
21675;SDS011;10999;51.332;9.458;2022-09-29T13:16:16;7.43;;;4.07;;
21675;SDS011;10999;51.332;9.458;2022-09-29T13:27:44;7.38;;;3.75;;
21675;SDS011;10999;51.332;9.458;2022-09-29T13:30:15;6.15;;;2.50;;
21675;SDS011;10999;51.332;9.458;2022-09-29T13:32:48;7.10;;;2.50;;
21675;SDS011;10999;51.332;9.458;2022-09-29T13:35:40;6.60;;;2.75;;
21675;SDS011;10999;51.332;9.458;2022-09-29T13:38:17;7.38;;;2.78;;
21675;SDS011;10999;51.332;9.458;2022-09-29T13:59:38;4.20;;;1.35;;
21675;SDS011;10999;51.332;9.458;2022-09-29T14:05:04;4.03;;;1.20;;
21675;SDS011;10999;51.332;9.458;2022-09-29T14:12:56;2.17;;;0.90;;
21675;SDS011;10999;51.332;9.458;2022-09-29T14:15:34;5.63;;;1.42;;
21675;SDS011;10999;51.332;9.458;2022-09-29T14:18:11;3.03;;;1.08;;
21675;SDS011;10999;51.332;9.458;2022-09-29T14:21:08;1.77;;;0.85;;
21675;SDS011;10999;51.332;9.458;2022-09-29T14:29:15;1.25;;;0.50;;
21675;SDS011;10999;51.332;9.458;2022-09-29T14:31:53;3.30;;;0.85;;
21675;SDS011;10999;51.332;9.458;2022-09-29T14:34:24;1.17;;;0.63;;
21675;SDS011;10999;51.332;9.458;2022-09-29T14:36:53;2.50;;;1.13;;
21675;SDS011;10999;51.332;9.458;2022-09-29T14:39:21;2.40;;;0.80;;
21675;SDS011;10999;51.332;9.458;2022-09-29T14:41:52;1.50;;;0.65;;
21675;SDS011;10999;51.332;9.458;2022-09-29T14:56:51;3.28;;;0.80;;
21675;SDS011;10999;51.332;9.458;2022-09-29T14:59:38;2.03;;;0.60;;
21675;SDS011;10999;51.332;9.458;2022-09-29T15:02:19;1.20;;;0.60;;
21675;SDS011;10999;51.332;9.458;2022-09-29T15:04:52;1.70;;;0.60;;
21675;SDS011;10999;51.332;9.458;2022-09-29T15:07:22;0.43;;;0.40;;
21675;SDS011;10999;51.332;9.458;2022-09-29T15:09:54;0.55;;;0.40;;
21675;SDS011;10999;51.332;9.458;2022-09-29T15:12:25;1.20;;;0.43;;
21675;SDS011;10999;51.332;9.458;2022-09-29T15:14:57;1.38;;;0.50;;
21675;SDS011;10999;51.332;9.458;2022-09-29T15:25:43;0.70;;;0.50;;
21675;SDS011;10999;51.332;9.458;2022-09-29T15:28:13;4.03;;;0.90;;
21675;SDS011;10999;51.332;9.458;2022-09-29T15:30:43;2.88;;;1.25;;
21675;SDS011;10999;51.332;9.458;2022-09-29T15:35:56;2.10;;;0.90;;
21675;SDS011;10999;51.332;9.458;2022-09-29T15:38:27;3.28;;;1.13;;
21675;SDS011;10999;51.332;9.458;2022-09-29T15:40:59;3.90;;;1.20;;
21675;SDS011;10999;51.332;9.458;2022-09-29T15:43:39;2.17;;;0.90;;
21675;SDS011;10999;51.332;9.458;2022-09-29T15:49:16;5.57;;;2.03;;
21675;SDS011;10999;51.332;9.458;2022-09-29T15:52:06;5.07;;;2.10;;
21675;SDS011;10999;51.332;9.458;2022-09-29T15:54:37;4.85;;;2.13;;
21675;SDS011;10999;51.332;9.458;2022-09-29T16:05:32;6.82;;;2.10;;
21675;SDS011;10999;51.332;9.458;2022-09-29T16:08:13;4.05;;;1.65;;
21675;SDS011;10999;51.332;9.458;2022-09-29T16:10:49;5.95;;;1.92;;
21675;SDS011;10999;51.332;9.458;2022-09-29T16:13:24;4.38;;;1.70;;
21675;SDS011;10999;51.332;9.458;2022-09-29T16:16:00;3.90;;;1.52;;
21675;SDS011;10999;51.332;9.458;2022-09-29T16:23:41;8.75;;;3.72;;
21675;SDS011;10999;51.332;9.458;2022-09-29T16:26:17;7.50;;;3.75;;
21675;SDS011;10999;51.332;9.458;2022-09-29T16:31:26;7.30;;;3.10;;
21675;SDS011;10999;51.332;9.458;2022-09-29T16:33:56;5.00;;;2.45;;
21675;SDS011;10999;51.332;9.458;2022-09-29T16:36:26;4.97;;;2.55;;
21675;SDS011;10999;51.332;9.458;2022-09-29T16:38:59;3.58;;;1.83;;
21675;SDS011;10999;51.332;9.458;2022-09-29T16:41:36;5.07;;;1.70;;
21675;SDS011;10999;51.332;9.458;2022-09-29T16:49:28;5.00;;;2.30;;
21675;SDS011;10999;51.332;9.458;2022-09-29T16:52:01;2.78;;;1.75;;
21675;SDS011;10999;51.332;9.458;2022-09-29T16:54:45;5.00;;;2.22;;
21675;SDS011;10999;51.332;9.458;2022-09-29T16:59:56;6.70;;;2.72;;
21675;SDS011;10999;51.332;9.458;2022-09-29T17:02:30;5.50;;;2.35;;
21675;SDS011;10999;51.332;9.458;2022-09-29T17:04:57;7.68;;;2.63;;
21675;SDS011;10999;51.332;9.458;2022-09-29T17:07:26;7.97;;;2.50;;
21675;SDS011;10999;51.332;9.458;2022-09-29T17:09:59;7.22;;;2.85;;
21675;SDS011;10999;51.332;9.458;2022-09-29T17:12:27;7.78;;;3.45;;
21675;SDS011;10999;51.332;9.458;2022-09-29T17:14:54;7.28;;;3.30;;
21675;SDS011;10999;51.332;9.458;2022-09-29T17:17:23;5.63;;;2.42;;
21675;SDS011;10999;51.332;9.458;2022-09-29T17:19:52;7.05;;;2.95;;
21675;SDS011;10999;51.332;9.458;2022-09-29T17:22:33;7.03;;;3.20;;
21675;SDS011;10999;51.332;9.458;2022-09-29T17:25:02;8.85;;;2.72;;
21675;SDS011;10999;51.332;9.458;2022-09-29T17:27:30;7.18;;;3.30;;
21675;SDS011;10999;51.332;9.458;2022-09-29T17:30:17;8.88;;;3.70;;
21675;SDS011;10999;51.332;9.458;2022-09-29T17:32:48;8.77;;;2.88;;
21675;SDS011;10999;51.332;9.458;2022-09-29T17:35:16;7.60;;;3.42;;
21675;SDS011;10999;51.332;9.458;2022-09-29T17:37:44;7.68;;;3.70;;
21675;SDS011;10999;51.332;9.458;2022-09-29T17:42:50;5.65;;;2.60;;
21675;SDS011;10999;51.332;9.458;2022-09-29T17:45:18;5.68;;;2.65;;
21675;SDS011;10999;51.332;9.458;2022-09-29T17:47:46;6.40;;;2.88;;
21675;SDS011;10999;51.332;9.458;2022-09-29T17:50:21;7.13;;;3.10;;
21675;SDS011;10999;51.332;9.458;2022-09-29T17:52:52;7.15;;;3.20;;
21675;SDS011;10999;51.332;9.458;2022-09-29T17:55:19;7.32;;;3.60;;
21675;SDS011;10999;51.332;9.458;2022-09-29T17:57:48;7.72;;;4.47;;
21675;SDS011;10999;51.332;9.458;2022-09-29T18:00:16;8.15;;;4.07;;
21675;SDS011;10999;51.332;9.458;2022-09-29T18:02:47;10.15;;;4.75;;
21675;SDS011;10999;51.332;9.458;2022-09-29T18:05:16;11.18;;;5.03;;
21675;SDS011;10999;51.332;9.458;2022-09-29T18:07:52;13.15;;;4.85;;
21675;SDS011;10999;51.332;9.458;2022-09-29T18:12:51;8.70;;;4.30;;
21675;SDS011;10999;51.332;9.458;2022-09-29T18:15:18;9.98;;;5.18;;
21675;SDS011;10999;51.332;9.458;2022-09-29T18:17:46;9.65;;;4.80;;
21675;SDS011;10999;51.332;9.458;2022-09-29T18:20:17;10.77;;;5.20;;
21675;SDS011;10999;51.332;9.458;2022-09-29T18:22:45;10.70;;;5.20;;
21675;SDS011;10999;51.332;9.458;2022-09-29T18:25:13;8.90;;;5.22;;
21675;SDS011;10999;51.332;9.458;2022-09-29T18:27:43;11.25;;;5.90;;
21675;SDS011;10999;51.332;9.458;2022-09-29T18:32:38;11.50;;;5.50;;
21675;SDS011;10999;51.332;9.458;2022-09-29T18:35:09;11.70;;;5.75;;
21675;SDS011;10999;51.332;9.458;2022-09-29T18:37:39;10.15;;;5.00;;
21675;SDS011;10999;51.332;9.458;2022-09-29T18:40:06;13.20;;;5.70;;
21675;SDS011;10999;51.332;9.458;2022-09-29T18:42:38;9.07;;;4.65;;